Time,TemperatureF,DewpointF,PressureIn,WindDirection,WindDirectionDegrees,WindSpeedMPH,WindSpeedGustMPH,Humidity,HourlyPrecipIn,Conditions,Clouds,dailyrainin,SolarRadiationWatts/m^2,SoftwareType,DateUTC
2013-03-07 00:01:00,30.0,11.0,-100.00,East,89,2.0,3.0,44,0.00,,,0.07,0.000000,,2013-03-07 07:01:00,
2013-03-07 00:11:00,30.0,11.0,-100.00,East,89,2.0,3.0,44,0.00,,,0.07,0.000000,,2013-03-07 07:11:00,
2013-03-07 00:21:00,30.0,11.0,-100.00,East,89,2.0,3.0,44,0.00,,,0.07,0.000000,,2013-03-07 07:21:00,
2013-03-07 00:22:00,30.0,10.0,-100.00,ENE,73,2.0,3.0,42,0.00,,,0.07,0.000000,,2013-03-07 07:22:00,
2013-03-07 00:43:00,30.0,10.0,-100.00,ENE,73,2.0,3.0,42,0.00,,,0.07,0.000000,,2013-03-07 07:43:00,
2013-03-07 00:53:00,30.0,10.0,-100.00,ENE,73,2.0,3.0,42,0.00,,,0.07,0.000000,,2013-03-07 07:53:00,
2013-03-07 01:02:00,30.0,10.0,-100.00,ENE,73,2.0,3.0,42,0.00,,,0.07,0.000000,,2013-03-07 08:02:00,
2013-03-07 01:12:00,30.0,10.0,-100.00,ENE,73,2.0,3.0,42,0.00,,,0.07,0.000000,,2013-03-07 08:12:00,
2013-03-07 01:22:00,29.0,9.0,-100.00,East,93,2.0,4.0,43,0.00,,,0.07,0.000000,,2013-03-07 08:22:00,
2013-03-07 01:45:00,29.0,9.0,-100.00,East,93,2.0,4.0,43,0.00,,,0.07,0.000000,,2013-03-07 08:45:00,
2013-03-07 01:54:00,29.0,9.0,-100.00,East,93,2.0,4.0,43,0.00,,,0.07,0.000000,,2013-03-07 08:54:00,
2013-03-07 02:03:00,29.0,9.0,-100.00,East,93,2.0,4.0,43,0.00,,,0.07,0.000000,,2013-03-07 09:03:00,
2013-03-07 02:13:00,29.0,9.0,-100.00,East,93,2.0,4.0,43,0.00,,,0.07,0.000000,,2013-03-07 09:13:00,
2013-03-07 02:22:00,29.0,8.0,-100.00,East,81,1.0,3.0,41,0.00,,,0.07,0.000000,,2013-03-07 09:22:00,
2013-03-07 02:43:00,29.0,8.0,-100.00,East,81,1.0,3.0,41,0.00,,,0.07,0.000000,,2013-03-07 09:43:00,
2013-03-07 02:53:00,29.0,8.0,-100.00,East,81,1.0,3.0,41,0.00,,,0.07,0.000000,,2013-03-07 09:53:00,
2013-03-07 03:03:00,29.0,8.0,-100.00,East,81,1.0,3.0,41,0.00,,,0.07,0.000000,,2013-03-07 10:03:00,
2013-03-07 03:13:00,29.0,8.0,-100.00,East,81,1.0,3.0,41,0.00,,,0.07,0.000000,,2013-03-07 10:13:00,
2013-03-07 03:22:00,27.0,9.0,-100.00,ENE,59,2.0,3.0,45,0.00,,,0.07,0.000000,,2013-03-07 10:22:00,
2013-03-07 03:43:00,27.0,9.0,-100.00,ENE,59,2.0,3.0,45,0.00,,,0.07,0.000000,,2013-03-07 10:43:00,
2013-03-07 03:53:00,27.0,9.0,-100.00,ENE,59,2.0,3.0,45,0.00,,,0.07,0.000000,,2013-03-07 10:53:00,
2013-03-07 04:03:00,27.0,9.0,-100.00,ENE,59,2.0,3.0,45,0.00,,,0.07,0.000000,,2013-03-07 11:03:00,
2013-03-07 04:12:00,27.0,9.0,-100.00,ENE,59,2.0,3.0,45,0.00,,,0.07,0.000000,,2013-03-07 11:12:00,
2013-03-07 04:22:00,26.0,9.0,-100.00,ENE,76,1.0,4.0,47,0.00,,,0.07,0.000000,,2013-03-07 11:22:00,
2013-03-07 04:44:00,26.0,9.0,-100.00,ENE,76,1.0,4.0,47,0.00,,,0.07,0.000000,,2013-03-07 11:44:00,
2013-03-07 04:54:00,26.0,9.0,-100.00,ENE,76,1.0,4.0,47,0.00,,,0.07,0.000000,,2013-03-07 11:54:00,
2013-03-07 05:03:00,26.0,9.0,-100.00,ENE,76,1.0,4.0,47,0.00,,,0.07,0.000000,,2013-03-07 12:03:00,
2013-03-07 05:12:00,26.0,9.0,-100.00,ENE,76,1.0,4.0,47,0.00,,,0.07,0.000000,,2013-03-07 12:12:00,
2013-03-07 05:22:00,22.0,11.0,-100.00,West,271,1.0,4.0,61,0.00,,,0.07,0.000000,,2013-03-07 12:22:00,
2013-03-07 05:43:00,22.0,11.0,-100.00,West,271,1.0,4.0,61,0.00,,,0.07,0.000000,,2013-03-07 12:43:00,
2013-03-07 05:53:00,22.0,11.0,-100.00,West,271,1.0,4.0,61,0.00,,,0.07,0.000000,,2013-03-07 12:53:00,
2013-03-07 06:02:00,22.0,11.0,-100.00,West,271,1.0,4.0,61,0.00,,,0.07,0.000000,,2013-03-07 13:02:00,
2013-03-07 06:12:00,22.0,11.0,-100.00,West,271,1.0,4.0,61,0.00,,,0.07,0.000000,,2013-03-07 13:12:00,
2013-03-07 06:22:00,21.0,9.0,-100.00,ENE,74,0.0,2.0,60,0.00,,,0.07,0.000000,,2013-03-07 13:22:00,
2013-03-07 06:42:00,21.0,9.0,-100.00,ENE,74,0.0,2.0,60,0.00,,,0.07,0.000000,,2013-03-07 13:42:00,
2013-03-07 06:53:00,21.0,9.0,-100.00,ENE,74,0.0,2.0,60,0.00,,,0.07,0.000000,,2013-03-07 13:53:00,
2013-03-07 07:02:00,21.0,9.0,-100.00,ENE,74,0.0,2.0,60,0.00,,,0.07,0.000000,,2013-03-07 14:02:00,
2013-03-07 07:12:00,21.0,9.0,-100.00,ENE,74,0.0,2.0,60,0.00,,,0.07,0.000000,,2013-03-07 14:12:00,
2013-03-07 07:22:00,27.0,11.0,-100.00,NNW,333,0.0,3.0,50,0.00,,,0.07,63.000000,,2013-03-07 14:22:00,
2013-03-07 07:43:00,27.0,11.0,-100.00,NNW,333,0.0,3.0,50,0.00,,,0.07,63.000000,,2013-03-07 14:43:00,
2013-03-07 08:03:00,27.0,11.0,-100.00,NNW,333,0.0,3.0,50,0.00,,,0.07,63.000000,,2013-03-07 15:03:00,
2013-03-07 08:12:00,27.0,11.0,-100.00,NNW,333,0.0,3.0,50,0.00,,,0.07,63.000000,,2013-03-07 15:12:00,
2013-03-07 08:22:00,30.0,11.0,-100.00,WSW,249,2.0,2.0,45,0.00,,,0.07,290.000000,,2013-03-07 15:22:00,
2013-03-07 08:43:00,30.0,11.0,-100.00,WSW,249,2.0,2.0,45,0.00,,,0.07,290.000000,,2013-03-07 15:43:00,
2013-03-07 08:53:00,30.0,11.0,-100.00,WSW,249,2.0,2.0,45,0.00,,,0.07,290.000000,,2013-03-07 15:53:00,
2013-03-07 09:02:00,30.0,11.0,-100.00,WSW,249,2.0,2.0,45,0.00,,,0.07,290.000000,,2013-03-07 16:02:00,
2013-03-07 09:12:00,30.0,11.0,-100.00,WSW,249,2.0,2.0,45,0.00,,,0.07,290.000000,,2013-03-07 16:12:00,
2013-03-07 09:22:00,36.0,12.0,-100.00,SW,228,1.0,3.0,37,0.00,,,0.07,543.000000,,2013-03-07 16:22:00,
2013-03-07 09:43:00,36.0,12.0,-100.00,SW,228,1.0,3.0,37,0.00,,,0.07,543.000000,,2013-03-07 16:43:00,
2013-03-07 09:53:00,36.0,12.0,-100.00,SW,228,1.0,3.0,37,0.00,,,0.07,543.000000,,2013-03-07 16:53:00,
2013-03-07 10:02:00,36.0,12.0,-100.00,SW,228,1.0,3.0,37,0.00,,,0.07,543.000000,,2013-03-07 17:02:00,
2013-03-07 10:12:00,36.0,12.0,-100.00,SW,228,1.0,3.0,37,0.00,,,0.07,543.000000,,2013-03-07 17:12:00,
2013-03-07 10:22:00,33.0,8.0,-100.00,West,272,2.0,4.0,34,0.00,,,0.04,742.000000,,2013-03-07 17:22:00,
2013-03-07 10:54:00,33.0,8.0,-100.00,West,272,2.0,4.0,34,0.00,,,0.04,742.000000,,2013-03-07 17:54:00,
2013-03-07 11:03:00,33.0,8.0,-100.00,West,272,2.0,4.0,34,0.00,,,0.04,742.000000,,2013-03-07 18:03:00,
2013-03-07 11:12:00,33.0,8.0,-100.00,West,272,2.0,4.0,34,0.00,,,0.04,742.000000,,2013-03-07 18:12:00,
2013-03-07 11:22:00,41.0,10.0,-100.00,WNW,284,2.0,4.0,27,0.00,,,0.04,886.000000,,2013-03-07 18:22:00,
2013-03-07 11:43:00,41.0,10.0,-100.00,WNW,284,2.0,4.0,27,0.00,,,0.04,886.000000,,2013-03-07 18:43:00,
2013-03-07 11:53:00,41.0,10.0,-100.00,WNW,284,2.0,4.0,27,0.00,,,0.04,886.000000,,2013-03-07 18:53:00,
2013-03-07 12:03:00,41.0,10.0,-100.00,WNW,284,2.0,4.0,27,0.00,,,0.04,886.000000,,2013-03-07 19:03:00,
2013-03-07 12:12:00,41.0,10.0,-100.00,WNW,284,2.0,4.0,27,0.00,,,0.04,886.000000,,2013-03-07 19:12:00,
2013-03-07 12:22:00,44.0,15.0,-100.00,SW,234,2.0,6.0,30,0.00,,,0.04,963.000000,,2013-03-07 19:22:00,
2013-03-07 12:44:00,44.0,15.0,-100.00,SW,234,2.0,6.0,30,0.00,,,0.04,963.000000,,2013-03-07 19:44:00,
2013-03-07 12:53:00,44.0,15.0,-100.00,SW,234,2.0,6.0,30,0.00,,,0.04,963.000000,,2013-03-07 19:53:00,
2013-03-07 13:02:00,44.0,15.0,-100.00,SW,234,2.0,6.0,30,0.00,,,0.04,963.000000,,2013-03-07 20:02:00,
2013-03-07 13:13:00,44.0,15.0,-100.00,SW,234,2.0,6.0,30,0.00,,,0.04,963.000000,,2013-03-07 20:13:00,
2013-03-07 13:22:00,42.0,14.0,-100.00,West,262,2.0,5.0,32,0.00,,,0.02,961.000000,,2013-03-07 20:22:00,
2013-03-07 13:43:00,42.0,14.0,-100.00,West,262,2.0,5.0,32,0.00,,,0.02,961.000000,,2013-03-07 20:43:00,
2013-03-07 13:54:00,42.0,14.0,-100.00,West,262,2.0,5.0,32,0.00,,,0.02,961.000000,,2013-03-07 20:54:00,
2013-03-07 14:02:00,42.0,14.0,-100.00,West,262,2.0,5.0,32,0.00,,,0.02,961.000000,,2013-03-07 21:02:00,
2013-03-07 14:12:00,42.0,14.0,-100.00,West,262,2.0,5.0,32,0.00,,,0.02,961.000000,,2013-03-07 21:12:00,
2013-03-07 14:22:00,46.0,12.0,-100.00,WSW,242,2.0,3.0,25,0.00,,,0.02,877.000000,,2013-03-07 21:22:00,
2013-03-07 14:43:00,46.0,12.0,-100.00,WSW,242,2.0,3.0,25,0.00,,,0.02,877.000000,,2013-03-07 21:43:00,
2013-03-07 14:53:00,46.0,12.0,-100.00,WSW,242,2.0,3.0,25,0.00,,,0.02,877.000000,,2013-03-07 21:53:00,
2013-03-07 15:02:00,46.0,12.0,-100.00,WSW,242,2.0,3.0,25,0.00,,,0.02,877.000000,,2013-03-07 22:02:00,
2013-03-07 15:12:00,46.0,12.0,-100.00,WSW,242,2.0,3.0,25,0.00,,,0.02,877.000000,,2013-03-07 22:12:00,
2013-03-07 15:22:00,46.0,7.0,-100.00,WSW,251,2.0,3.0,20,0.00,,,0.01,733.000000,,2013-03-07 22:22:00,
2013-03-07 15:43:00,46.0,7.0,-100.00,WSW,251,2.0,3.0,20,0.00,,,0.01,733.000000,,2013-03-07 22:43:00,
2013-03-07 15:54:00,46.0,7.0,-100.00,WSW,251,2.0,3.0,20,0.00,,,0.01,733.000000,,2013-03-07 22:54:00,
2013-03-07 16:03:00,46.0,7.0,-100.00,WSW,251,2.0,3.0,20,0.00,,,0.01,733.000000,,2013-03-07 23:03:00,
2013-03-07 16:13:00,46.0,7.0,-100.00,WSW,251,2.0,3.0,20,0.00,,,0.01,733.000000,,2013-03-07 23:13:00,
2013-03-07 16:22:00,45.0,5.0,-100.00,West,274,3.0,4.0,19,0.00,,,0.01,531.000000,,2013-03-07 23:22:00,
2013-03-07 16:44:00,45.0,5.0,-100.00,West,274,3.0,4.0,19,0.00,,,0.01,531.000000,,2013-03-07 23:44:00,
2013-03-07 16:54:00,45.0,5.0,-100.00,West,274,3.0,4.0,19,0.00,,,0.01,531.000000,,2013-03-07 23:54:00,
2013-03-07 17:04:00,45.0,5.0,-100.00,West,274,3.0,4.0,19,0.00,,,0.01,531.000000,,2013-03-08 00:04:00,
2013-03-07 17:13:00,45.0,5.0,-100.00,West,274,3.0,4.0,19,0.00,,,0.01,531.000000,,2013-03-08 00:13:00,
2013-03-07 17:44:00,42.0,7.0,-100.00,West,261,2.0,4.0,23,0.00,,,0.00,291.000000,,2013-03-08 00:44:00,
2013-03-07 17:54:00,42.0,7.0,-100.00,West,261,2.0,4.0,23,0.00,,,0.00,291.000000,,2013-03-08 00:54:00,
2013-03-07 18:02:00,42.0,7.0,-100.00,West,261,2.0,4.0,23,0.00,,,0.00,291.000000,,2013-03-08 01:02:00,
2013-03-07 18:11:00,42.0,7.0,-100.00,West,261,2.0,4.0,23,0.00,,,0.00,291.000000,,2013-03-08 01:11:00,
2013-03-07 18:21:00,42.0,7.0,-100.00,West,261,2.0,4.0,23,0.00,,,0.00,291.000000,,2013-03-08 01:21:00,
2013-03-07 18:42:00,36.0,0.0,-100.00,SSW,201,0.0,3.0,21,0.00,,,0.00,52.000000,,2013-03-08 01:42:00,
2013-03-07 18:52:00,36.0,0.0,-100.00,SSW,201,0.0,3.0,21,0.00,,,0.00,52.000000,,2013-03-08 01:52:00,
2013-03-07 19:01:00,36.0,0.0,-100.00,SSW,201,0.0,3.0,21,0.00,,,0.00,52.000000,,2013-03-08 02:01:00,
2013-03-07 19:11:00,36.0,0.0,-100.00,SSW,201,0.0,3.0,21,0.00,,,0.00,52.000000,,2013-03-08 02:11:00,
2013-03-07 19:21:00,36.0,0.0,-100.00,SSW,201,0.0,3.0,21,0.00,,,0.00,52.000000,,2013-03-08 02:21:00,
2013-03-07 19:22:00,34.0,1.0,-100.00,SSE,161,2.0,5.0,24,0.00,,,0.00,0.000000,,2013-03-08 02:22:00,
2013-03-07 19:42:00,34.0,1.0,-100.00,SSE,161,2.0,5.0,24,0.00,,,0.00,0.000000,,2013-03-08 02:42:00,
2013-03-07 19:53:00,34.0,1.0,-100.00,SSE,161,2.0,5.0,24,0.00,,,0.00,0.000000,,2013-03-08 02:53:00,
2013-03-07 20:02:00,34.0,1.0,-100.00,SSE,161,2.0,5.0,24,0.00,,,0.00,0.000000,,2013-03-08 03:02:00,
2013-03-07 20:12:00,34.0,1.0,-100.00,SSE,161,2.0,5.0,24,0.00,,,0.00,0.000000,,2013-03-08 03:12:00,
2013-03-07 20:43:00,33.0,6.0,-100.00,SE,126,2.0,6.0,31,0.00,,,0.00,0.000000,,2013-03-08 03:43:00,
2013-03-07 20:53:00,33.0,6.0,-100.00,SE,126,2.0,6.0,31,0.00,,,0.00,0.000000,,2013-03-08 03:53:00,
2013-03-07 21:01:00,33.0,6.0,-100.00,SE,126,2.0,6.0,31,0.00,,,0.00,0.000000,,2013-03-08 04:01:00,
2013-03-07 21:11:00,33.0,6.0,-100.00,SE,126,2.0,6.0,31,0.00,,,0.00,0.000000,,2013-03-08 04:11:00,
2013-03-07 21:21:00,33.0,6.0,-100.00,SE,126,2.0,6.0,31,0.00,,,0.00,0.000000,,2013-03-08 04:21:00,
2013-03-07 21:22:00,32.0,7.0,-100.00,NE,52,2.0,4.0,34,0.00,,,0.00,0.000000,,2013-03-08 04:22:00,
2013-03-07 21:42:00,32.0,7.0,-100.00,NE,52,2.0,4.0,34,0.00,,,0.00,0.000000,,2013-03-08 04:42:00,
2013-03-07 21:52:00,32.0,7.0,-100.00,NE,52,2.0,4.0,34,0.00,,,0.00,0.000000,,2013-03-08 04:52:00,
2013-03-07 22:02:00,32.0,7.0,-100.00,NE,52,2.0,4.0,34,0.00,,,0.00,0.000000,,2013-03-08 05:02:00,
2013-03-07 22:12:00,32.0,7.0,-100.00,NE,52,2.0,4.0,34,0.00,,,0.00,0.000000,,2013-03-08 05:12:00,
2013-03-07 22:42:00,31.0,8.0,-100.00,ESE,112,2.0,4.0,38,0.00,,,0.00,0.000000,,2013-03-08 05:42:00,
2013-03-07 22:52:00,31.0,8.0,-100.00,ESE,112,2.0,4.0,38,0.00,,,0.00,0.000000,,2013-03-08 05:52:00,
2013-03-07 23:01:00,31.0,8.0,-100.00,ESE,112,2.0,4.0,38,0.00,,,0.00,0.000000,,2013-03-08 06:01:00,
2013-03-07 23:11:00,31.0,8.0,-100.00,ESE,112,2.0,4.0,38,0.00,,,0.00,0.000000,,2013-03-08 06:11:00,
2013-03-07 23:21:00,31.0,8.0,-100.00,ESE,112,2.0,4.0,38,0.00,,,0.00,0.000000,,2013-03-08 06:21:00,
2013-03-07 23:42:00,31.0,8.0,-100.00,East,88,2.0,3.0,37,0.00,,,0.00,0.000000,,2013-03-08 06:42:00,
2013-03-07 23:52:00,31.0,8.0,-100.00,East,88,2.0,3.0,37,0.00,,,0.00,0.000000,,2013-03-08 06:52:00,